Hlavní strana
METAR-TAF:

METAR-TAF

Letiště :

Tunis, Tunisko

zeměpisná šířka: 36-50N, zeměpisná délka: 010-14E, výška: 3 m

Aktuální stav počasí

Zpráva byla vytvořena před 30 minutami, v 18:00 UTC
Severovýchodní vítr 6 kt, proměnlivý mezi severoseverovýchodním a východním
Teplota 32°C
Vlhkost vzduchu 43%
Tlak 1013 hPa
Viditelnost 10 km a více
Žádná oblačnost pod 1500 m, nevyskytují se cumulonimby.

METAR: DTTA 201800Z 05006KT 030V090 CAVOK 32/18 Q1013 NOSIG

Čas: 19:30 (18:30 UTC)

Předpověď počasí

Zpráva byla vytvořena před 34 minutami, v 17:56 UTC
Předpověď platná od 20 v 18 UTC do 21 v 18 UTC
Východní vítr 8 kt
Viditelnost 10 km a více
Žádná oblačnost pod 1500 m, nevyskytují se cumulonimby.
Změna
od 20 v 22 UTC do 20 v 24 UTC
Jižní vítr 8 kt

TAF: DTTA 201756Z 2018/2118 08008KT CAVOK BECMG 2022/2024 17008KT

Stav a předpovědi počasí z více než 4 000 letišť (zprávy METAR a TAF).

Červené a žluté tečky na mapě představují dostupné meteorologické stanice.

Když kurzor umístíte na tečku, zobrazí se název stanice.

Pak kliknutím zobrazíte stav a předpověď počasí.

Chcete-li změnit mapu, kliknutím na zelené tlačítko se znaménkem +mapu přiblížíte, kliknutím na zelené tlačítko se znaménkem – mapu oddálíte a kliknutím na zelené šipky přejdete na sousední mapy.


METAR-TAF: